YJR
YJRResultsBanner
YJR

Greenwood Furnace Trail Challenge

Overall Finish List

May 01, 2016



Green Furnace Trail Challenge

Place Name City Bib No Age Gender Age Group Total Time Pace
1 MATT LIPSEY 831 26 M 1 Top Fin 1:39:09.17 7:34/M
2 JOHN JOHNSON ULSTER PA 539 43 M 2 Top Fin 1:40:57.77 7:42/M
3 NATHAN BONHAM WESTFIELD PA 214 19 M 3 Top Fin 1:44:26.29 7:58/M
4 ADAM RUSSELL ROME PA 767 37 M 4 Top Fin 1:47:04.83 8:10/M
5 MICHAEL HASTINGS LOCK HAVEN PA 528 31 M 5 Top Fin 1:51:51.49 8:32/M
6 JEFF SMUCKER CENTRE HALL PA 779 50 M 6 Top Fin 1:52:03.85 8:33/M
7 KOLTIN HAMMER ERIE PA 521 20 M 7 Top Fin 1:52:13.35 8:34/M
8 DYLAN GERATY MILL HALL PA 506 19 M 8 Top Fin 1:57:11.49 8:57/M
9 JIM WENGER BEAVERTOWN PA 809 46 M 1 40-49 1:58:38.87 9:03/M
10 ZACH MOON LEWISTOWN PA 744 22 M 1 20-29 1:59:04.27 9:05/M
11 GABE ZOOK STATE COLLEGE PA 827 38 M 1 30-39 1:59:07.12 9:06/M
12 MEIRA MINARD STATE COLLEGE PA 739 42 F 1 Top Fin 1:59:13.76 9:06/M
13 ROBERT STUCK LEWISTOWN PA 792 17 M 1 1-19 2:00:42.58 9:13/M
14 STEVE TEMPLIN MUNCY PA 795 43 M 2 40-49 2:02:14.20 9:20/M
15 CAROLE DUDUKOVICH PORT MATILDA PA 242 49 F 2 Top Fin 2:02:28.61 9:21/M
16 HARM SLIJPER DELFT HOLLAND 778 44 M 3 40-49 2:05:26.96 9:35/M
17 MICHAEL DINSMORE HUNTINGDON PA 240 33 M 2 30-39 2:06:08.77 9:38/M
18 KIRBY MARTIN REEDSVILLE PA 726 40 M 4 40-49 2:08:13.22 9:47/M
19 CHRIS SHEAFFER LEWISTOWN PA 772 41 M 5 40-49 2:09:32.79 9:53/M
20 SHAWN BROWN ROME PA 219 40 M 6 40-49 2:09:52.88 9:55/M
21 TRAVIS ZOOK REEDSVILLE PA 828 35 M 3 30-39 2:10:10.35 9:56/M
22 ERIC GOSS MILROY PA 516 37 M 4 30-39 2:10:24.54 9:57/M
23 JESSICA ZOZOS MILL HALL PA 829 26 F 3 Top Fin 2:11:11.52 10:01/M
24 AARON SHADLE HALIFAX PA 768 39 M 5 30-39 2:12:30.15 10:07/M
25 GLENN STAUFFER MILROY PA 784 42 M 7 40-49 2:12:48.65 10:08/M
26 CHEYENNE ALBERT MORRISDALE PA 201 26 F 4 Top Fin 2:12:57.58 10:09/M
27 KELLY KENNEDY LEMONT PA 546 43 M 8 40-49 2:13:30.81 10:11/M
28 JOSHUA LUCAS MCALISTERVILLE PA 718 28 M 2 20-29 2:13:39.82 10:12/M
29 FRIDOLIN LINDER STATE COLLEGE PA 714 29 M 3 20-29 2:13:46.41 10:13/M
30 JOEL STROUSE LOGANTON PA 791 46 M 9 40-49 2:14:30.34 10:16/M
31 MERRILL SHOWERS NEW COLUMBIA PA 776 54 M 1 50-59 2:14:41.93 10:17/M
32 CRAIG FLEMING STATE COLLEGE PA 249 44 M 10 40-49 2:16:24.16 10:25/M
33 STUART SHEBEST NORTHUMBERLAND PA 773 43 M 11 40-49 2:16:27.66 10:25/M
34 JODY DEWALD MILLVILLE PA 236 47 M 12 40-49 2:16:51.92 10:27/M
35 GRANT COLE WELLSBORO PA 230 28 M 4 20-29 2:19:18.32 10:38/M
36 MIKE ELDER 830 48 M 13 40-49 2:19:37.40 10:39/M
37 MIKE DELORSO MIFFLINBURG PA 235 31 M 6 30-39 2:20:37.29 10:44/M
38 RYAN BAUMAN LANCASTER PA 204 37 M 7 30-39 2:20:45.85 10:45/M
39 ANDY BELL YORK HAVEN PA 208 42 M 14 40-49 2:21:03.47 10:46/M
40 JEFF LOVELL WILLIAMSPORT PA 717 52 M 2 50-59 2:21:10.56 10:47/M
41 JOHN MARK STOLTZFUS EPHRATA PA 790 42 M 15 40-49 2:21:15.88 10:47/M
42 ERICA COWAN PORT MATILDA PA 232 35 F 5 Top Fin 2:21:17.18 10:47/M
43 JACOB HEBDON STATE COLLEGE PA 530 28 M 5 20-29 2:21:18.11 10:47/M
44 CHRISTOPHER UPDEGROVE PORT MATILDA PA 799 39 M 8 30-39 2:21:56.68 10:50/M
45 GARY BUCHAN PITTSBURGH PA 223 58 M 3 50-59 2:22:36.88 10:53/M
46 BROCK RIDER SPRING MILLS PA 763 37 M 9 30-39 2:25:59.44 11:09/M
47 JEFF LYNN SLIPPERY ROCK PA 719 48 M 16 40-49 2:26:31.19 11:11/M
48 JOHN PENDERGAST REEDVILLE PA 754 44 M 17 40-49 2:26:41.69 11:12/M
49 JOE HEINTZ PINE GROVE MILLS PA 531 38 M 10 30-39 2:26:55.81 11:13/M
50 JARL SNIDER SPRING MILLS PA 781 45 M 18 40-49 2:27:33.94 11:16/M
51 LOUIS LEVESQUE OWEGO NY 711 15 M 2 1-19 2:28:29.77 11:20/M
52 AMANDA HASSINGER MILROY PA 527 18 F 6 Top Fin 2:28:36.27 11:21/M
53 RANDY MOORE STATE COLLEGE PA 745 58 M 4 50-59 2:28:53.12 11:22/M
54 MARK WHERLEY STATE COLLEGE PA 814 52 M 5 50-59 2:29:12.66 11:23/M
55 AARON STEHMAN LOCK HAVEN PA 785 34 M 11 30-39 2:29:46.70 11:26/M
56 BRIAN HOFFMAN BERWICK PA 535 35 M 12 30-39 2:30:10.45 11:28/M
57 JULIE PENTICO WILLIAMSPORT PA 755 48 F 7 Top Fin 2:30:13.11 11:28/M
58 TODD MUSSER PETERSBURG PA 749 47 M 19 40-49 2:30:19.96 11:28/M
59 ALEX FOX PA 502 52 M 6 50-59 2:31:28.41 11:34/M
60 JODY WEIDNER GILLETT PA 808 51 M 7 50-59 2:31:39.57 11:35/M
61 LAURA TYSON STATE COLLEGE PA 798 34 F 8 Top Fin 2:32:01.21 11:36/M
62 JOSEPH LOBASSO STONY BROOK NY 716 45 M 20 40-49 2:33:41.17 11:44/M
63 REED WILLAR MILL HALL PA 817 18 M 3 1-19 2:33:41.37 11:44/M
64 STEPHEN WILCOX JR FREEBURG PA 816 50 M 8 50-59 2:34:07.46 11:46/M
65 LAURA HELLER COGAN STATION PA 532 34 F 1 30-39 2:35:46.96 11:53/M
66 MARK BERGSTROM STATE COLLEGE PA 211 55 M 9 50-59 2:36:41.98 11:58/M
67 JESSE GREENAWALT LEWISBURG PA 519 48 M 21 40-49 2:38:06.48 12:04/M
68 MICHAEL HIPPO ALTOONA PA 533 51 M 10 50-59 2:38:12.58 12:05/M
69 REBECCA WHITESELL BELLEFONTE PA 815 54 F 1 50-59 2:38:31.33 12:06/M
70 KEITH HEARN ELIZABETHTOWN PA 529 39 M 13 30-39 2:41:22.67 12:19/M
71 TIM SWISHER MECHANICSBURG PA 794 41 M 22 40-49 2:41:59.19 12:22/M
72 TOM HOWE LITITZ PA 536 50 M 11 50-59 2:42:13.62 12:23/M
73 TANIA LEZAK MILAN PA 713 38 F 2 30-39 2:42:27.86 12:24/M
74 ERIC BRIDENBAUGH ALTOONA PA 217 31 M 14 30-39 2:42:47.73 12:26/M
75 KATHRYN KOETJE-SIMIN 702 44 F 1 40-49 2:42:54.21 12:26/M
76 BRIAN BROWN LEWISBURG PA 218 41 M 23 40-49 2:43:09.71 12:27/M
77 MITCHELL GOIST BELLEFONTE PA 512 25 M 6 20-29 2:43:27.14 12:29/M
78 JOSH HADEN HAZELTON PA 520 35 M 15 30-39 2:44:11.49 12:32/M
79 TRACY WRIGHT WAVERLY NY 823 41 F 2 40-49 2:44:26.99 12:33/M
80 DEVIN BECK HUNTINGDON PA 206 21 F 1 20-29 2:44:52.35 12:35/M
81 ADAM GEARHART BELLEFONTE PA 505 41 M 24 40-49 2:45:09.40 12:36/M
82 MICHAEL BELAIR COPLEY OH 207 26 M 7 20-29 2:45:11.40 12:37/M
83 TERESA BARNES WILLIAMSPORT PA 203 44 F 3 40-49 2:45:19.61 12:37/M
84 ROB GOLDER BLOOMSBURG PA 513 49 M 25 40-49 2:45:59.99 12:40/M
85 BRIAN SHAFFER SASSAFRAS RD PA 770 39 M 16 30-39 2:46:45.30 12:44/M
86 JENNIFER HARTZLER LEWISTOWN PA 526 34 F 3 30-39 2:47:11.86 12:46/M
87 ERIN GOCEK WILLIAMSPORT PA 511 35 F 4 30-39 2:47:19.36 12:46/M
88 RICHARD FILLMAN JERSEY SHORE PA 248 63 M 1 60-99 2:47:36.50 12:48/M
89 MARTHA BRALKOWSKI RIDGWAY PA 216 31 F 5 30-39 2:48:26.57 12:51/M
90 LARRY FENNESSEY STATE COLLEGE PA 247 55 M 12 50-59 2:48:51.13 12:53/M
91 ALEXANDRA DUNN STATE COLLEGE PA 244 27 F 2 20-29 2:49:11.86 12:55/M
92 MARIA WHERLEY STATE COLLEGE PA 813 47 F 4 40-49 2:49:23.24 12:56/M
93 BRITTANY FOLK BEAVER SPRINGS PA 501 30 F 6 30-39 2:49:30.36 12:56/M
94 CRAIG ECKENRODE BEDFORD PA 245 51 M 13 50-59 2:49:48.20 12:58/M
95 AUTUMN WOOD WINDBER PA 821 28 F 3 20-29 2:49:48.31 12:58/M
96 RACHEL MILLIRON BELLEFONTE PA 541 25 F 4 20-29 2:49:56.57 12:58/M
97 RYAN KNECHT BLAIRSVILLE PA 547 44 M 26 40-49 2:50:10.16 12:59/M
98 DAVID SUROVEC HOWARD PA 793 36 M 17 30-39 2:50:31.91 13:01/M
99 MATT CROYLE HILLIARD OH 233 40 M 27 40-49 2:52:23.34 13:10/M
100 HELENA KOTALA HUNTINGDON PA 705 25 F 5 20-29 2:52:27.51 13:10/M
 
Place Name City Bib No Age Gender Age Group Total Time Pace
101 MELISSA WALTER BEAVERTOWN PA 805 48 F 5 40-49 2:52:56.51 13:12/M
102 OWEN RINKER LOCK HAVEN PA 764 15 M 4 1-19 2:52:57.44 13:12/M
103 LAURA RENNINGER MC CLURE PA 762 32 F 7 30-39 2:53:04.52 13:13/M
104 JESSICA GOSS MILROY PA 517 35 F 8 30-39 2:54:14.19 13:18/M
105 ANDREA BRACKBILL WILLIAMSPORT PA 215 23 F 6 20-29 2:55:24.25 13:23/M
106 MATT ZERBY LOCK HAVEN PA 825 28 M 8 20-29 2:55:26.27 13:24/M
107 LAURIE VOELKER JOHNSTOWN PA 801 47 F 6 40-49 2:55:37.66 13:24/M
108 TOM KAPINUS REEDSVILLE PA 543 48 M 28 40-49 2:55:40.93 13:25/M
109 SCOTT ROSSMAN BELLEFONTE PA 765 46 M 29 40-49 2:55:51.63 13:25/M
110 NIKI CARTER HARRISBURG PA 225 36 F 9 30-39 2:55:53.49 13:26/M
111 SHELLEY MUTH DUBOIS PA 750 42 F 7 40-49 2:55:54.50 13:26/M
112 DICK WRIGHT STATE COLLEGE PA 822 54 M 14 50-59 2:56:22.18 13:28/M
113 JOHN PUTMAN LOCK HAVEN PA 758 59 M 15 50-59 2:56:23.18 13:28/M
114 MARK VOELKER JOHNSTOWN PA 802 49 M 30 40-49 2:56:42.87 13:29/M
115 CHRIS SHANK REEDSVILLE PA 771 42 M 31 40-49 2:56:56.28 13:30/M
116 SARAH BENDER ELLIOTTSBURG PA 210 32 F 10 30-39 2:57:14.13 13:32/M
117 ALI ZIAADDINI NEW YORK NY 826 34 M 18 30-39 2:58:55.70 13:39/M
118 STEVEN LEASON SELINSGROVE PA 710 51 M 16 50-59 2:59:38.11 13:43/M
119 KELLY MILLER NEW CUMBERLAND PA 738 32 F 11 30-39 3:00:05.73 13:45/M
120 BRANDON FOLK BEAVER SPRINGS PA 250 30 M 19 30-39 3:02:08.33 13:54/M
121 ERNIE STAUFFER STEVENS PA 783 51 M 17 50-59 3:02:13.43 13:55/M
122 MISTY TROWBRIDGE LOCK HAVEN PA 797 35 F 12 30-39 3:04:11.49 14:04/M
123 BRENT KELSEY HUNTINGDON PA 545 47 M 32 40-49 3:04:13.98 14:04/M
124 CHRISTINA OMBALSKI JULIANN PA 752 40 F 8 40-49 3:04:41.41 14:06/M
125 KATIE SHOEMAKER HUNTINGDON PA 774 22 F 7 20-29 3:05:10.66 14:08/M
126 ASHLYN WERT MC ELHATTAN PA 810 16 F 1 1-19 3:05:41.10 14:10/M
127 LUCAS RANKIN BELLEFONTE PA 761 36 M 20 30-39 3:06:41.22 14:15/M
128 MARY ANN HANLON STATE COLLEGE PA 522 50 F 2 50-59 3:09:13.10 14:27/M
129 RON BELLINGER COLUMBIA CROSS ROADS PA 209 39 M 21 30-39 3:09:19.56 14:27/M
130 ALICIA PALMER HUNTINGDON PA 753 28 F 8 20-29 3:09:24.46 14:27/M
131 HEIDI DILL HALIFAX PA 239 30 F 13 30-39 3:09:39.50 14:29/M
132 FRANK KOEHL BELLEFONTE PA 550 33 M 22 30-39 3:10:29.30 14:32/M
133 KEVIN HARRIS LEBANON PA 525 29 M 9 20-29 3:11:00.27 14:35/M
134 DOUGLAS CARVELL HARRISBURG PA 226 51 M 18 50-59 3:11:19.31 14:36/M
135 CAROLYN LYTER MIFFLINTOWN PA 720 37 F 14 30-39 3:12:46.57 14:43/M
136 EMILY MORSE WARRENTON VA 747 39 F 15 30-39 3:12:46.71 14:43/M
137 MICHAEL MEAGHER ELMIRA NY 733 54 M 19 50-59 3:14:35.32 14:51/M
138 STEPHANIE MORROW HARRISBURG PA 746 43 F 9 40-49 3:14:42.82 14:52/M
139 JENNIFER MITCHELL HUNTINGDON PA 740 44 F 10 40-49 3:14:50.61 14:52/M
140 TOBI MITCHELL HUNTINGDON PA 741 44 M 33 40-49 3:14:51.82 14:52/M
141 PEGGY JOHNSON BOALSBURG PA 540 60 F 1 60-99 3:15:38.56 14:56/M
142 PERRY MASON BELLEFONTE PA 728 47 M 34 40-49 3:17:33.33 15:05/M
143 CAROLYN GARDNER STATE COLLEGE PA 504 40 F 11 40-49 3:20:21.74 15:18/M
144 TREVOR DANKO BELLEFONTE PA 234 29 M 10 20-29 3:21:06.95 15:21/M
145 BRIAN MANCKE LANGHORNE PA 723 42 M 35 40-49 3:23:00.24 15:30/M
146 BILL MCCONNELL WATERVILLE PA 730 40 M 36 40-49 3:23:50.43 15:34/M
147 REBECCA MASON BELLEFONTE PA 729 54 F 3 50-59 3:24:26.10 15:36/M
148 KRISTEN SHOEMAKER LEWISTOWN PA 775 40 F 12 40-49 3:24:49.89 15:38/M
149 ADELL WILLIAMS CANTON PA 818 37 F 16 30-39 3:25:17.75 15:40/M
150 ALAN ROTHERMEL LITITZ PA 766 62 M 2 60-99 3:25:33.30 15:41/M
151 SCOTT LIPPY HANOVER PA 715 63 M 3 60-99 3:25:40.83 15:42/M
152 JENNIFER YEARICK LEWISTOWN PA 824 39 F 17 30-39 3:27:59.45 15:53/M
153 KIM BUBB REEDSVILLE PA 222 35 F 18 30-39 3:30:03.43 16:02/M
154 TRACY GOLDER BLOOMSBURG PA 514 45 F 13 40-49 3:30:43.83 16:05/M
155 CECIL MCFARLAND LAWRENCEBURG KY 732 67 M 4 60-99 3:34:40.88 16:23/M
156 SCOTT SPOTTS BELLEVILLE PA 782 45 M 37 40-49 3:35:37.75 16:28/M
157 GINA WERT MC ELHATTAN PA 811 50 F 4 50-59 3:35:50.13 16:29/M
158 KARTIK NATH RICHMOND HILL NY 751 36 M 23 30-39 3:38:40.44 16:42/M
159 RICK KNEPP DUNCANNON PA 549 58 M 20 50-59 3:38:42.74 16:42/M
160 ALLY KNEPP MCCLURE PA 548 18 F 2 1-19 3:38:44.13 16:42/M
161 CAREEN SHAFER MAPLETON DEPOT PA 769 40 F 14 40-49 3:39:14.82 16:44/M
162 CAROLE WILLIAMSON ELDERSBURG MD 819 54 F 5 50-59 3:39:36.56 16:46/M
163 JASON HOCKENBERRY MCVEYTOWN PA 534 41 M 38 40-49 3:40:22.16 16:49/M
164 ERICA QUINN HUNTINGDON PA 759 27 F 9 20-29 3:40:36.14 16:50/M
165 JULIE LANG RIDGWAY PA 708 39 F 19 30-39 3:41:56.39 16:56/M
166 DAWN STIFFLER JERSEY SHORE PA 787 39 F 20 30-39 3:44:58.59 17:10/M
167 JENNIFER STEWART MCVEYTOWN PA 786 40 F 15 40-49 3:49:46.91 17:32/M
168 DENISE PRIMAK MIFFLINTOWN PA 757 45 F 16 40-49 3:50:00.42 17:33/M
169 JANE KONE HOWARD PA 703 62 F 2 60-99 3:50:03.12 17:34/M
170 TERRI QUINN WHITE HAVEN PA 760 57 M 21 50-59 3:50:11.42 17:34/M
171 TIFFANY BRUSHWOOD STATE COLLEGE PA 221 41 F 17 40-49 3:52:00.67 17:43/M
172 BRIAN BRUSHWOOD STATE COLLEGE PA 220 40 M 39 40-49 3:52:01.67 17:43/M
173 RON BICKHART MCVEYTOWN PA 212 43 M 40 40-49 3:52:55.42 17:47/M
174 SARAH WHARTON HUNTINGDON PA 812 31 F 21 30-39 3:58:54.69 18:14/M
175 SARA MARKER JULIAN PA 725 29 F 10 20-29 3:59:26.67 18:17/M
176 NANETTE MELTON WESTMINSTER MD 734 56 F 6 50-59 4:01:54.45 18:28/M
177 PAMELA GOWEN KEYMAR MD 518 63 F 3 60-99 4:01:54.78 18:28/M
178 MELISSA JACKSON JERSEY SHORE PA 537 35 F 22 30-39 4:03:34.95 18:36/M
179 LAURIE WALTERS BELLEFONTE PA 806 39 F 23 30-39 4:05:09.70 18:43/M
180 MARCY SMUCKER WOODWARD PA 780 19 F 3 1-19 4:08:46.91 18:59/M
181 GREG MADDEN STATE COLLEGE PA 721 51 M 22 50-59 4:08:58.71 19:00/M
182 BENJAMIN STOKES HARRISBURG PA 788 33 M 24 30-39 4:10:38.22 19:08/M
183 CASEY STOKES-RODRIGUEZ HUMMELSTOWN PA 789 29 F 11 20-29 4:10:38.99 19:08/M
184 LESLIE CLUKEY LOCK HAVEN PA 229 50 F 7 50-59 4:21:15.83 19:57/M
185 KASEY BLESH LOCK HAVEN PA 213 26 F 12 20-29 4:21:17.65 19:57/M
186 ROBERT GIPE STEWARTSTOWN PA 507 52 M 23 50-59 4:24:21.50 20:11/M
187 DONNA WAGNER HARRISBURG PA 803 48 F 18 40-49 4:35:45.38 21:03/M
188 RUSSELL WAGNER HARRISBURG PA 804 64 M 5 60-99 4:35:47.50 21:03/M
189 SANDRA GIPE STEWARTSTOWN PA 508 54 F 8 50-59 4:35:57.39 21:04/M
190 BETH HARMON BELLEVILLE PA 523 52 F 9 50-59 4:53:42.22 22:25/M
191 MICHAEL HARMON BELLEVILLE PA 524 54 M 24 50-59 4:53:42.33 22:25/M
192 BARBARA LEVY WESTMINSTER MD 712 57 F 10 50-59 4:55:25.93 22:33/M
193 TESS KOEPPEN TANGYTOWN MD 701 69 F 4 60-99 4:55:26.34 22:33/M